Norfolk — WDG2147 — position and weather

sailwx.info

Track history (hours):
 
Tides and Currents Weather Stations Pressure Air Temp Water Temp Dewpoint Dewpoint Depression Visibility Wind Speed Wind Dir Waves Ship Positions

Norfolk

Owner: Virginia Pilot Boat Corporation, Virginia Beach, VA. More information available from US FCC via Universal Licensing System and Coast Guard Vessel Documentation Center.

Last reported at 2016-Jul-27 00:15 UTC. Time now 2016-Jul-27 09:42 UTC.
Position N 36°54' W 076°05'.

Length 18 m; draft 1.5 m.

Type: Pilot. MMSI: 367512630.

Date/timePositionNaut miles runAvg speedWind from/ knotsBaromVisibWave heightAir tempDewpointWater temp
2016-Jul-27 00:15N 36°54' W 076°05'0 0.0
2016-Jul-26 23:33N 36°54' W 076°05'0 0.0
2016-Jul-26 22:32N 36°54' W 076°05'0 0.0
2016-Jul-26 21:33N 36°54' W 076°05'0 0.0
2016-Jul-26 20:17N 36°54' W 076°05'0 0.0
2016-Jul-26 18:26N 36°54' W 076°05'0 0.0
2016-Jul-26 17:30N 36°54' W 076°05'0 0.0
2016-Jul-26 16:32N 36°54' W 076°05'0 0.0
2016-Jul-26 15:31N 36°54' W 076°05'0 0.0
2016-Jul-26 14:34N 36°54' W 076°05'0 0.0
2016-Jul-26 13:33N 36°54' W 076°05'0 0.0
2016-Jul-26 12:30N 36°54' W 076°05'0 0.0
2016-Jul-26 11:31N 36°54' W 076°05'0 0.0
2016-Jul-26 10:32N 36°54' W 076°05'0 0.0
2016-Jul-26 00:15N 36°54' W 076°05'0 0.0
2016-Jul-25 23:34N 36°54' W 076°05'0 0.0
2016-Jul-25 22:22N 36°54' W 076°05'0 0.0
2016-Jul-25 21:33N 36°54' W 076°05'0 0.0
2016-Jul-25 20:33N 36°54' W 076°05'0 0.0
2016-Jul-25 19:33N 36°54' W 076°05'0 0.0
2016-Jul-25 18:33N 36°54' W 076°05'0 0.0
2016-Jul-25 17:33N 36°54' W 076°05'0 0.0
2016-Jul-25 16:32N 36°54' W 076°05'0 0.0
2016-Jul-25 15:33N 36°54' W 076°05'0 0.0
2016-Jul-25 14:33N 36°54' W 076°05'0 0.0
2016-Jul-25 13:33N 36°54' W 076°05'0 0.0
2016-Jul-25 12:31N 36°54' W 076°05'3 3.5
2016-Jul-25 11:33N 36°56' W 076°02'5 1.1
2016-Jul-25 07:14N 36°56' W 075°56'8 2.0
2016-Jul-25 03:22N 36°54' W 076°05'0 0.0
2016-Jul-25 02:19N 36°54' W 076°05'0 0.0
2016-Jul-25 01:31N 36°54' W 076°05'0 0.0
2016-Jul-25 00:32N 36°54' W 076°05'0 0.0
2016-Jul-24 23:33N 36°54' W 076°05'0 0.0
2016-Jul-24 22:33N 36°54' W 076°05'0 0.0
2016-Jul-24 21:33N 36°54' W 076°05'0 0.0
2016-Jul-24 20:33N 36°54' W 076°05'0 0.0
2016-Jul-24 19:33N 36°54' W 076°05'0 0.0
2016-Jul-24 18:33N 36°54' W 076°05'0 0.0
2016-Jul-24 17:33N 36°54' W 076°05'0 0.0
2016-Jul-24 16:33N 36°54' W 076°05'0 0.1
2016-Jul-24 15:32N 36°54' W 076°06'0 0.0
2016-Jul-23 22:13N 36°54' W 076°05'0 0.0
2016-Jul-23 21:33N 36°54' W 076°05'0 0.0
2016-Jul-23 16:19N 36°54' W 076°05'0 0.0
2016-Jul-23 14:08N 36°54' W 076°05'2 0.3
2016-Jul-23 07:25N 36°56' W 076°04'2 0.2
2016-Jul-23 00:11N 36°54' W 076°05'0 0.0
2016-Jul-22 23:33N 36°54' W 076°05'0 0.0
2016-Jul-22 22:33N 36°54' W 076°05'11 0.9
2016-Jul-22 10:22N 36°55' W 076°20'0 0.0
2016-Jul-21 21:25N 36°55' W 076°20'0 0.3
2016-Jul-21 20:07N 36°55' W 076°20'3 0.7
2016-Jul-21 15:29N 36°52' W 076°19'3 2.9
2016-Jul-21 14:22N 36°55' W 076°20'0 0.0
2016-Jul-21 13:31N 36°55' W 076°20'0 0.0
2016-Jul-21 12:33N 36°55' W 076°20'11 0.6
2016-Jul-20 18:12N 36°54' W 076°05'0 0.0
2016-Jul-20 13:19N 36°54' W 076°05'0 0.0
2016-Jul-20 03:29N 36°54' W 076°05'0 0.0
2016-Jul-20 02:17N 36°54' W 076°05'0 0.0
2016-Jul-19 19:33N 36°54' W 076°06'0 0.0
2016-Jul-19 14:33N 36°54' W 076°05'3 2.9
2016-Jul-19 13:22N 36°57' W 076°03'1 0.8
2016-Jul-19 12:27N 36°56' W 076°03'3 0.7
2016-Jul-19 08:26N 36°54' W 076°05'0 0.0
2016-Jul-19 00:20N 36°54' W 076°05'0 0.0
2016-Jul-18 23:12N 36°54' W 076°05'0 0.0
2016-Jul-18 22:31N 36°54' W 076°05'0 0.0
2016-Jul-18 21:32N 36°54' W 076°05'0 0.0
2016-Jul-18 20:33N 36°54' W 076°05'0 0.0
2016-Jul-18 19:29N 36°54' W 076°05'0 0.0
2016-Jul-18 18:29N 36°54' W 076°05'0 0.0
2016-Jul-18 17:33N 36°54' W 076°05'0 0.0
2016-Jul-18 16:30N 36°54' W 076°05'0 0.0
2016-Jul-18 15:33N 36°54' W 076°05'0 0.0
2016-Jul-18 14:31N 36°54' W 076°05'0 0.0
2016-Jul-18 13:26N 36°54' W 076°05'0 0.0
2016-Jul-18 12:30N 36°54' W 076°05'0 0.0
2016-Jul-18 11:24N 36°54' W 076°05'0 0.0
2016-Jul-18 10:30N 36°54' W 076°05'0 0.0
2016-Jul-18 08:33N 36°54' W 076°05'0 0.0
2016-Jul-17 21:11N 36°54' W 076°05'4 6.2
2016-Jul-17 20:29N 36°57' W 076°01'4 1.4
2016-Jul-17 17:26N 36°55' W 075°56'5 0.8
2016-Jul-17 10:22N 36°57' W 076°02'4 2.0
2016-Jul-17 08:31N 36°54' W 076°05'0 0.0
2016-Jul-17 07:18N 36°54' W 076°05'  
Track history (hours):
 
Tides and Currents Weather Stations Pressure Air Temp Water Temp Dewpoint Dewpoint Depression Visibility Wind Speed Wind Dir Waves Ship Positions

Norfolk

Owner: Virginia Pilot Boat Corporation, Virginia Beach, VA. More information available from US FCC via Universal Licensing System and Coast Guard Vessel Documentation Center.

Last reported at 2016-Jul-27 00:15 UTC. Time now 2016-Jul-27 09:42 UTC.
Position N 36°54' W 076°05'.

Length 18 m; draft 1.5 m.

Type: Pilot. MMSI: 367512630.

Date/timePositionNaut miles runAvg speedWind from/ knotsBaromVisibWave heightAir tempDewpointWater temp
2016-Jul-27 00:15N 36°54' W 076°05'0 0.0
2016-Jul-26 23:33N 36°54' W 076°05'0 0.0
2016-Jul-26 22:32N 36°54' W 076°05'0 0.0
2016-Jul-26 21:33N 36°54' W 076°05'0 0.0
2016-Jul-26 20:17N 36°54' W 076°05'0 0.0
2016-Jul-26 18:26N 36°54' W 076°05'0 0.0
2016-Jul-26 17:30N 36°54' W 076°05'0 0.0
2016-Jul-26 16:32N 36°54' W 076°05'0 0.0
2016-Jul-26 15:31N 36°54' W 076°05'0 0.0
2016-Jul-26 14:34N 36°54' W 076°05'0 0.0
2016-Jul-26 13:33N 36°54' W 076°05'0 0.0
2016-Jul-26 12:30N 36°54' W 076°05'0 0.0
2016-Jul-26 11:31N 36°54' W 076°05'0 0.0
2016-Jul-26 10:32N 36°54' W 076°05'0 0.0
2016-Jul-26 00:15N 36°54' W 076°05'0 0.0
2016-Jul-25 23:34N 36°54' W 076°05'0 0.0
2016-Jul-25 22:22N 36°54' W 076°05'0 0.0
2016-Jul-25 21:33N 36°54' W 076°05'0 0.0
2016-Jul-25 20:33N 36°54' W 076°05'0 0.0
2016-Jul-25 19:33N 36°54' W 076°05'0 0.0
2016-Jul-25 18:33N 36°54' W 076°05'0 0.0
2016-Jul-25 17:33N 36°54' W 076°05'0 0.0
2016-Jul-25 16:32N 36°54' W 076°05'0 0.0
2016-Jul-25 15:33N 36°54' W 076°05'0 0.0
2016-Jul-25 14:33N 36°54' W 076°05'0 0.0
2016-Jul-25 13:33N 36°54' W 076°05'0 0.0
2016-Jul-25 12:31N 36°54' W 076°05'3 3.5
2016-Jul-25 11:33N 36°56' W 076°02'5 1.1
2016-Jul-25 07:14N 36°56' W 075°56'8 2.0
2016-Jul-25 03:22N 36°54' W 076°05'0 0.0
2016-Jul-25 02:19N 36°54' W 076°05'0 0.0
2016-Jul-25 01:31N 36°54' W 076°05'0 0.0
2016-Jul-25 00:32N 36°54' W 076°05'0 0.0
2016-Jul-24 23:33N 36°54' W 076°05'0 0.0
2016-Jul-24 22:33N 36°54' W 076°05'0 0.0
2016-Jul-24 21:33N 36°54' W 076°05'0 0.0
2016-Jul-24 20:33N 36°54' W 076°05'0 0.0
2016-Jul-24 19:33N 36°54' W 076°05'0 0.0
2016-Jul-24 18:33N 36°54' W 076°05'0 0.0
2016-Jul-24 17:33N 36°54' W 076°05'0 0.0
2016-Jul-24 16:33N 36°54' W 076°05'0 0.1
2016-Jul-24 15:32N 36°54' W 076°06'0 0.0
2016-Jul-23 22:13N 36°54' W 076°05'0 0.0
2016-Jul-23 21:33N 36°54' W 076°05'0 0.0
2016-Jul-23 16:19N 36°54' W 076°05'0 0.0
2016-Jul-23 14:08N 36°54' W 076°05'2 0.3
2016-Jul-23 07:25N 36°56' W 076°04'2 0.2
2016-Jul-23 00:11N 36°54' W 076°05'0 0.0
2016-Jul-22 23:33N 36°54' W 076°05'0 0.0
2016-Jul-22 22:33N 36°54' W 076°05'11 0.9
2016-Jul-22 10:22N 36°55' W 076°20'0 0.0
2016-Jul-21 21:25N 36°55' W 076°20'0 0.3
2016-Jul-21 20:07N 36°55' W 076°20'3 0.7
2016-Jul-21 15:29N 36°52' W 076°19'3 2.9
2016-Jul-21 14:22N 36°55' W 076°20'0 0.0
2016-Jul-21 13:31N 36°55' W 076°20'0 0.0
2016-Jul-21 12:33N 36°55' W 076°20'11 0.6
2016-Jul-20 18:12N 36°54' W 076°05'0 0.0
2016-Jul-20 13:19N 36°54' W 076°05'0 0.0
2016-Jul-20 03:29N 36°54' W 076°05'0 0.0
2016-Jul-20 02:17N 36°54' W 076°05'0 0.0
2016-Jul-19 19:33N 36°54' W 076°06'0 0.0
2016-Jul-19 14:33N 36°54' W 076°05'3 2.9
2016-Jul-19 13:22N 36°57' W 076°03'1 0.8
2016-Jul-19 12:27N 36°56' W 076°03'3 0.7
2016-Jul-19 08:26N 36°54' W 076°05'0 0.0
2016-Jul-19 00:20N 36°54' W 076°05'0 0.0
2016-Jul-18 23:12N 36°54' W 076°05'0 0.0
2016-Jul-18 22:31N 36°54' W 076°05'0 0.0
2016-Jul-18 21:32N 36°54' W 076°05'0 0.0
2016-Jul-18 20:33N 36°54' W 076°05'0 0.0
2016-Jul-18 19:29N 36°54' W 076°05'0 0.0
2016-Jul-18 18:29N 36°54' W 076°05'0 0.0
2016-Jul-18 17:33N 36°54' W 076°05'0 0.0
2016-Jul-18 16:30N 36°54' W 076°05'0 0.0
2016-Jul-18 15:33N 36°54' W 076°05'0 0.0
2016-Jul-18 14:31N 36°54' W 076°05'0 0.0
2016-Jul-18 13:26N 36°54' W 076°05'0 0.0
2016-Jul-18 12:30N 36°54' W 076°05'0 0.0
2016-Jul-18 11:24N 36°54' W 076°05'0 0.0
2016-Jul-18 10:30N 36°54' W 076°05'0 0.0
2016-Jul-18 08:33N 36°54' W 076°05'0 0.0
2016-Jul-17 21:11N 36°54' W 076°05'4 6.2
2016-Jul-17 20:29N 36°57' W 076°01'4 1.4
2016-Jul-17 17:26N 36°55' W 075°56'5 0.8
2016-Jul-17 10:22N 36°57' W 076°02'4 2.0
2016-Jul-17 08:31N 36°54' W 076°05'0 0.0
2016-Jul-17 07:18N 36°54' W 076°05'  

Dump ship's entire track history